KTOA/TOA METAR and TAF weather

Enter ICAO airport designator
Station Type Date Time Source
KTOA METAR 2022/11/27 03:50 UTC NOAA

KTOA 270350Z 00000KT 10SM SKC 10/06 A3005 RMK LAST


Station Type Date Time Source
KTOA Decoded METAR 2022/11/27 03:50 UTC NOAA

Torrance, Zamperini Field Airport, CA, United States (KTOA) 33-48N 118-20W
Nov 26, 2022 - 10:50 PM EST / 2022.11.27 0350 UTC
Wind: Calm:0
Visibility: 10 mile(s):0
Sky conditions: clear
Temperature: 50 F (10 C)
Dew Point: 42 F (6 C)
Relative Humidity: 76%
Pressure (altimeter): 30.05 in. Hg (1017 hPa)
ob: KTOA 270350Z 00000KT 10SM SKC 10/06 A3005 RMK LAST
cycle: 4

Station Type Date Time Source
KTOA TAF UTC NOAA

Error!

Example: see airport list